,

Tisdag 25 februari - SMHI:s prognos

Vind Medel Byar Luftfukt. Åskrisk Sikt Moln
17:00 Molnigt -3° vindpil 7 m/s 13 m/s   990 hPa 76 % 0 % 16 km 100 %
18:00 Molnigt -3° vindpil 8 m/s 13 m/s   989 hPa 73 % 1 % 11 km 100 %
19:00 Molnigt -4° vindpil 8 m/s 14 m/s (0,0 - 0,1)  0,0 mm 989 hPa 76 % 1 % 6 km 100 %
20:00 Molnigt -4° vindpil 9 m/s 15 m/s (0,0 - 0,1)  0,0 mm 988 hPa 79 % 1 % 6 km 100 %
21:00 Molnigt -4° vindpil 9 m/s 15 m/s (0,0 - 0,1)  0,0 mm 987 hPa 80 % 1 % 6 km 100 %
22:00 Molnigt -4° vindpil 9 m/s 16 m/s (0,0 - 0,2)  0,0 mm 987 hPa 82 % 0 % 6 km 100 %
23:00 Molnigt -5° vindpil 10 m/s 17 m/s (0,0 - 0,1)  0,0 mm 986 hPa 80 % 0 % 6 km 100 %

Onsdag 26 februari - SMHI:s prognos

Vind Medel Byar Luftfukt. Åskrisk Sikt Moln
00:00 Molnigt och frisk vind -5° vindpil 10 m/s 17 m/s (0,0 - 0,2)  0,1 mm 986 hPa 77 % 0 % 6 km 100 %
01:00 Snö och frisk vind -5° vindpil 11 m/s 19 m/s (0,0 - 0,3)  0,2 mm 985 hPa 73 % 0 % 6 km 100 %
02:00 Snö och frisk vind -5° vindpil 11 m/s 19 m/s (0,1 - 0,7)  0,3 mm 985 hPa 77 % 0 % 4 km 100 %
03:00 Snö och frisk vind -6° vindpil 11 m/s 19 m/s (0,2 - 0,9)  0,5 mm 984 hPa 83 % 1 % 2 km 100 %
04:00 Snö och frisk vind -6° vindpil 11 m/s 19 m/s (0,4 - 1,2)  0,8 mm 984 hPa 84 % 1 % 2 km 100 %
05:00 Snö och frisk vind -6° vindpil 11 m/s 19 m/s (0,5 - 1,3)  0,9 mm 984 hPa 83 % 1 % 2 km 100 %
06:00 Snö och frisk vind -6° vindpil 12 m/s 20 m/s (0,4 - 1,5)  0,9 mm 984 hPa 81 % 1 % 2 km 100 %
07:00 Snö och frisk vind -7° vindpil 12 m/s 21 m/s (0,3 - 1,5)  0,8 mm 984 hPa 79 % 1 % 3 km 100 %
08:00 Snö och frisk vind -7° vindpil 12 m/s 21 m/s (0,3 - 1,2)  0,6 mm 984 hPa 77 % 1 % 8 km 100 %
09:00 Snö och frisk vind -7° vindpil 12 m/s 20 m/s (0,3 - 1,0)  0,5 mm 985 hPa 75 % 1 % 8 km 100 %
10:00 Snö och frisk vind -7° vindpil 12 m/s 20 m/s (0,3 - 0,8)  0,5 mm 985 hPa 75 % 1 % 6 km 100 %
11:00 Snö och frisk vind -7° vindpil 11 m/s 20 m/s (0,3 - 0,8)  0,5 mm 985 hPa 72 % 1 % 12 km 100 %
12:00 Snö och frisk vind -7° vindpil 11 m/s 20 m/s (0,3 - 0,7)  0,4 mm 986 hPa 70 % 1 % 33 km 100 %
13:00 Snö och frisk vind -7° vindpil 11 m/s 19 m/s (0,3 - 0,7)  0,4 mm 986 hPa 68 % 0 % 43 km 100 %
14:00 Snö och frisk vind -7° vindpil 11 m/s 19 m/s (0,3 - 1,0)  0,6 mm 986 hPa 67 % 0 % 22 km 100 %
15:00 Snö och frisk vind -8° vindpil 11 m/s 19 m/s (0,3 - 1,1)  0,7 mm 987 hPa 66 % 0 % 9 km 100 %
16:00 Snö och frisk vind -8° vindpil 12 m/s 20 m/s (0,6 - 1,2)  0,9 mm 987 hPa 66 % 0 % 4 km 100 %
17:00 Snö och frisk vind -8° vindpil 11 m/s 20 m/s (0,6 - 1,2)  0,9 mm 987 hPa 68 % 0 % 3 km 100 %
18:00 Snö och frisk vind -8° vindpil 11 m/s 20 m/s (0,6 - 1,3)  0,9 mm 988 hPa 73 % 0 % 1 km 100 %
19:00 Snö och frisk vind -8° vindpil 11 m/s 19 m/s (0,5 - 1,6)  1,0 mm 988 hPa 76 % 0 % 1 km 100 %
20:00 Snö och frisk vind -7° vindpil 11 m/s 19 m/s (0,5 - 2,0)  1,1 mm 988 hPa 81 % 1 % 0 km 100 %
21:00 Snö och frisk vind -7° vindpil 10 m/s 19 m/s (0,4 - 2,0)  1,1 mm 987 hPa 82 % 1 % 0 km 100 %
22:00 Snö -6° vindpil 9 m/s 18 m/s (0,3 - 2,0)  1,0 mm 987 hPa 85 % 1 % 1 km 100 %
23:00 Snö -4° vindpil 6 m/s 14 m/s (0,2 - 2,0)  1,0 mm 987 hPa 88 % 2 % 3 km 100 %

Torsdag 27 februari - SMHI:s prognos

Vind Medel Byar Luftfukt. Åskrisk Sikt Moln
00:00 Regn -4° vindpil 7 m/s 11 m/s (0,1 - 2,0)  1,0 mm 988 hPa 89 % 3 % 1 km 100 %
01:00 Snö och frisk vind -5° vindpil 11 m/s 21 m/s (0,3 - 1,4)  0,8 mm 988 hPa 92 % 2 % 1 km 100 %
02:00 Snö och frisk vind -6° vindpil 10 m/s 20 m/s (0,3 - 1,9)  1,2 mm 989 hPa 93 % 2 % 0 km 100 %
03:00 Snö -6° vindpil 10 m/s 20 m/s (0,7 - 2,4)  1,6 mm 989 hPa 94 % 2 % 0 km 100 %
04:00 Snö -6° vindpil 9 m/s 19 m/s (1,2 - 2,8)  1,9 mm 989 hPa 95 % 2 % 0 km 100 %
05:00 Snö -5° vindpil 8 m/s 17 m/s (0,4 - 2,8)  1,9 mm 989 hPa 96 % 3 % 0 km 100 %
06:00 Snö -5° vindpil 8 m/s 16 m/s (0,1 - 2,8)  1,4 mm 990 hPa 95 % 3 % 1 km 100 %
07:00 Snö -5° vindpil 9 m/s 16 m/s (0,0 - 2,5)  0,8 mm 991 hPa 92 % 2 % 5 km 100 %
08:00 Snö -6° vindpil 9 m/s 17 m/s (0,0 - 1,1)  0,3 mm 991 hPa 88 % 1 % 10 km 100 %
09:00 Snö -5° vindpil 8 m/s 17 m/s (0,0 - 0,4)  0,1 mm 992 hPa 86 % 1 % 7 km 100 %
10:00 Snö -5° vindpil 8 m/s 16 m/s (0,0 - 0,4)  0,2 mm 992 hPa 85 % 1 % 3 km 100 %
11:00 Snö -5° vindpil 7 m/s 14 m/s (0,0 - 0,4)  0,2 mm 992 hPa 86 % 1 % 3 km 100 %
12:00 Snö -5° vindpil 7 m/s 15 m/s (0,1 - 0,5)  0,3 mm 992 hPa 87 % 1 % 2 km 100 %
13:00 Snö -5° vindpil 7 m/s 14 m/s (0,6 - 1,5)  0,9 mm 993 hPa 87 % 1 % 2 km 100 %
16:00 Snö -5° vindpil 7 m/s 14 m/s (0,3 - 1,2)  0,9 mm 994 hPa 86 % 1 % 3 km 100 %
19:00 Snö -6° vindpil 7 m/s 12 m/s (0,0 - 1,2)  0,6 mm 994 hPa 80 % 0 % 6 km 100 %
22:00 Växlande molnighet -6° vindpil 5 m/s 11 m/s (0,0 - 0,3)  0,0 mm 995 hPa 75 % 0 % 50 km 63 %

Fredag 28 februari - SMHI:s prognos

Vind Medel Byar Luftfukt. Åskrisk Sikt Moln
01:00 Halvklart -4° -9° vindpil 4 m/s 7 m/s   996 hPa 78 % 0 % 22 km 25 %
07:00 Klart -7° -13° vindpil 4 m/s 7 m/s   999 hPa 82 % 0 % 15 km 0 %
13:00 Klart -1° -5° vindpil 3 m/s 6 m/s   1002 hPa 57 % 0 % 28 km 0 %
19:00 Klart -5° -10° vindpil 3 m/s 6 m/s   1004 hPa 67 % 0 % 23 km 0 %

Lördag 29 februari - SMHI:s prognos

Vind Medel Byar Luftfukt. Åskrisk Sikt Moln
01:00 Klart -7° -12° vindpil 3 m/s 6 m/s   1005 hPa 82 % 0 % 15 km 0 %
07:00 Halvklart -7° -12° vindpil 3 m/s 6 m/s   1004 hPa 91 % 0 % 14 km 25 %
13:00 Klart -1° -1° vindpil 1 m/s 5 m/s   1004 hPa 68 % 0 % 22 km 0 %
19:00 Växlande molnighet -6° -11° vindpil 3 m/s 4 m/s   1003 hPa 77 % 0 % 18 km 100 %

Söndag 1 mars - SMHI:s prognos

Vind Medel Byar Luftfukt. Åskrisk Sikt Moln
01:00 Molnigt -5° vindpil 6 m/s 10 m/s   1001 hPa 70 % 0 % 22 km 100 %
07:00 Molnigt -4° vindpil 8 m/s 15 m/s   999 hPa 73 % 0 % 20 km 100 %
13:00 Molnigt -4° vindpil 9 m/s 17 m/s   998 hPa 80 % 0 % 50 km 100 %
19:00 Växlande molnighet -1° vindpil 3 m/s 13 m/s (0,0 - 6,0)  0,6 mm 993 hPa 83 % 0 % 35 km 100 %

Måndag 2 mars - SMHI:s prognos

Vind Medel Byar Luftfukt. Åskrisk Sikt Moln
01:00 Växlande molnighet -1° vindpil 2 m/s 11 m/s (0,0 - 6,6)  0,6 mm 995 hPa 87 % 0 % 35 km 100 %
07:00 Växlande molnighet -1° vindpil 2 m/s 10 m/s (0,0 - 5,4)  0,6 mm 996 hPa 88 % 0 % 33 km 88 %
13:00 Molnigt vindpil 1 m/s 11 m/s (0,0 - 7,2)  1,2 mm 997 hPa 77 % 0 % 43 km 100 %

Tisdag 3 mars - SMHI:s prognos

Vind Medel Byar Luftfukt. Åskrisk Sikt Moln
01:00 Växlande molnighet -1° vindpil 2 m/s 10 m/s (0,0 - 6,0)  1,2 mm 999 hPa 85 % 0 % 32 km 100 %
13:00 Molnigt -1° vindpil 2 m/s 11 m/s (0,0 - 6,0)  1,2 mm 1002 hPa 75 % 0 % 40 km 100 %

Onsdag 4 mars - SMHI:s prognos

Vind Medel Byar Luftfukt. Åskrisk Sikt Moln
01:00 Molnigt -3° vindpil 2 m/s 9 m/s (0,0 - 7,2)  1,2 mm 1005 hPa 85 % 0 % 36 km 100 %
13:00 Molnigt -1° vindpil 2 m/s 10 m/s (0,0 - 9,6)  1,2 mm 1005 hPa 73 % 0 % 39 km 100 %

Torsdag 5 mars - SMHI:s prognos

Vind Medel Byar Luftfukt. Åskrisk Sikt Moln
01:00 Molnigt -1° -2° vindpil 2 m/s 9 m/s (0,0 - 9,6)  1,2 mm 1003 hPa 84 % 0 % 33 km 100 %
13:00 Molnigt -1° vindpil 2 m/s 11 m/s (0,0 - 3,6)  0,0 mm 1001 hPa 73 % 0 % 42 km 100 %

Fredag 6 mars - SMHI:s prognos

Vind Medel Byar Luftfukt. Åskrisk Sikt Moln
01:00 Molnigt -2° vindpil 2 m/s 10 m/s (0,0 - 4,8)  1,2 mm 1000 hPa 84 % 0 % 34 km 100 %

Vädervarningar

Vädervarningar - från SMHI

Norra Östersjön Varning klass 1 kuling (18-24 m/s) Kommentar: Nordväst 15 m/s, i eftermiddag avtagande. Från tisdag middag ost 15-20 m/s.
Norra Östersjön Varning klass 1 högt vattenstånd När: Från söndag eftermiddag. Var: Hela området, högst i norra delen. Nivå: 75-90 cm i RH 2000. Kommentar: Angiven nivå i RH 2000 motsvarar ca 65-80 cm över årets medelvattenstånd i detta område.
Se alla vädervarningar

Vägtemperaturen är just nu runt 0 grader - Kör försiktigt!

Västerhaninge 0.7° 5 km, S 23 min sedan
Vägväderstationer som visar en vägtemperatur nära 0 grader. Risk för tillfrysning och halt väglag.

Väderstatistik och historik för Haninge

Vädret för ett år sedan

Min Max Väderstation
1,0° 9,3° Västerhaninge
4,2° 8,2° Farsta
3,5° 9,2° Älta
4,1° 8,7° Hårsfjärden
2,7° 8,1° Tullinge
Förra årets uppmätta temperaturer den 25 feb 2019.

Årstider

Våren ankommer normalt om
24 dagar
Vår 21 mars
Sommar 23 maj
Höst 24 september
Vinter 6 december
Årstidernas genomsnittliga ankomstdatum vid väderstationen Hårsfjärden (11 km bort). Källa: Bearbetning av SMHI:s normaltemperaturer.